Time;durP1;ratioP1;P1;durP2;ratioP2;P2;SDS_P1;SDS_P2;PMS_P1;PMS_P2;Temp;Humidity;BMP_temperature;BMP_pressure;BME280_temperature;BME280_humidity;BME280_pressure;Samples;Min_cycle;Max_cycle;Signal;HPM_P1;HPM_P2
2023/04/26 00:01:45;;;;;;;7.93;1.70;;;;;;;5.71;100.00;101890.31;5070547;28;20429;-43
2023/04/26 00:04:11;;;;;;;22.35;2.15;;;;;;;5.69;100.00;101891.41;5072100;28;20426;-41
2023/04/26 00:06:37;;;;;;;5.72;1.67;;;;;;;5.72;100.00;101886.66;5071757;28;20443;-41
2023/04/26 00:09:03;;;;;;;7.18;1.73;;;;;;;5.66;100.00;101887.16;5070141;28;20025;-43
2023/04/26 00:11:29;;;;;;;10.60;1.92;;;;;;;5.63;100.00;101891.88;5067798;28;20033;-45
2023/04/26 00:13:54;;;;;;;9.93;1.63;;;;;;;5.60;100.00;101892.13;5061440;28;20135;-41
2023/04/26 00:16:19;;;;;;;9.23;1.55;;;;;;;5.56;100.00;101890.69;5050641;28;20040;-42
2023/04/26 00:18:45;;;;;;;7.18;1.58;;;;;;;5.56;100.00;101891.53;5054521;28;20087;-41
2023/04/26 00:21:11;;;;;;;13.10;2.10;;;;;;;5.54;100.00;101892.63;5061370;28;20036;-44
2023/04/26 00:23:36;;;;;;;8.07;1.92;;;;;;;5.51;100.00;101891.06;5071526;28;20036;-47
2023/04/26 00:26:02;;;;;;;12.70;2.17;;;;;;;5.46;100.00;101891.41;5071907;28;20024;-41
2023/04/26 00:28:28;;;;;;;9.05;2.20;;;;;;;5.44;100.00;101898.69;5067045;28;20414;-43
2023/04/26 00:30:56;;;;;;;6.75;1.73;;;;;;;5.41;100.00;101904.28;5049934;28;20059;-42
2023/04/26 00:33:22;;;;;;;;;;;;;;;5.42;100.00;101900.63;5052026;28;20017;-45
2023/04/26 00:35:47;;;;;;;11.02;1.85;;;;;;;5.36;100.00;101903.78;5049948;28;19913;-42
2023/04/26 00:38:12;;;;;;;7.82;1.90;;;;;;;5.28;100.00;101895.56;5042884;28;20434;-42
2023/04/26 00:40:38;;;;;;;9.93;2.10;;;;;;;5.21;100.00;101903.22;5064832;28;20060;-40
2023/04/26 00:43:04;;;;;;;10.10;2.42;;;;;;;5.17;100.00;101901.75;5067988;28;20060;-42
2023/04/26 00:45:30;;;;;;;6.88;1.90;;;;;;;5.15;100.00;101902.81;5061926;28;20061;-44
2023/04/26 00:47:56;;;;;;;6.72;2.03;;;;;;;5.08;100.00;101902.44;5061571;28;20099;-41
2023/04/26 00:50:22;;;;;;;5.50;2.10;;;;;;;5.05;100.00;101906.25;5047954;28;20180;-41
2023/04/26 00:52:48;;;;;;;9.32;1.80;;;;;;;4.94;100.00;101900.88;5050681;28;20029;-41
2023/04/26 00:55:15;;;;;;;7.07;2.10;;;;;;;4.87;100.00;101907.66;5054828;28;20035;-43
2023/04/26 00:57:40;;;;;;;9.88;2.80;;;;;;;4.83;100.00;101908.84;5068301;28;20082;-43
2023/04/26 01:00:06;;;;;;;6.60;1.90;;;;;;;4.77;100.00;101906.66;5064103;28;20032;-43
2023/04/26 01:02:32;;;;;;;13.32;2.17;;;;;;;4.74;100.00;101901.53;5059976;28;20340;-44
2023/04/26 01:04:57;;;;;;;6.15;2.45;;;;;;;4.73;100.00;101903.38;5050478;28;20188;-43
2023/04/26 01:07:22;;;;;;;10.23;2.10;;;;;;;4.74;100.00;101904.22;5059178;28;20136;-45
2023/04/26 01:09:48;;;;;;;8.70;2.38;;;;;;;4.72;100.00;101901.69;5050177;28;20048;-41
2023/04/26 01:12:13;;;;;;;4.38;1.98;;;;;;;4.65;100.00;101900.44;5070048;28;20032;-42
2023/04/26 01:14:39;;;;;;;13.32;2.13;;;;;;;4.58;100.00;101902.75;5060451;28;20025;-48
2023/04/26 01:17:05;;;;;;;8.50;2.47;;;;;;;4.54;100.00;101898.59;5054484;28;20466;-45
2023/04/26 01:19:31;;;;;;;9.57;2.25;;;;;;;4.57;100.00;101897.53;5050791;28;20383;-46
2023/04/26 01:21:57;;;;;;;9.55;2.42;;;;;;;4.62;100.00;101906.03;5048910;28;20402;-44
2023/04/26 01:24:22;;;;;;;10.90;3.00;;;;;;;4.62;100.00;101906.03;5049761;28;20029;-41
2023/04/26 01:26:48;;;;;;;9.30;3.00;;;;;;;4.62;100.00;101912.19;5055017;28;20066;-41
2023/04/26 01:29:18;;;;;;;6.90;2.15;;;;;;;4.61;100.00;101910.50;5065308;28;20576;-46
2023/04/26 01:31:44;;;;;;;5.70;2.60;;;;;;;4.60;100.00;101907.94;5070508;28;20020;-43
2023/04/26 01:34:10;;;;;;;7.53;2.42;;;;;;;4.56;100.00;101910.00;5068635;28;20071;-43
2023/04/26 01:36:35;;;;;;;7.65;2.53;;;;;;;4.47;100.00;101908.03;5068678;28;20063;-42
2023/04/26 01:39:01;;;;;;;11.75;2.22;;;;;;;4.42;100.00;101906.69;5052439;28;20020;-43
2023/04/26 01:41:26;;;;;;;12.63;2.50;;;;;;;4.39;100.00;101905.94;5068870;28;20038;-41
2023/04/26 01:43:52;;;;;;;8.32;2.58;;;;;;;4.40;100.00;101901.47;5062526;28;20502;-43
2023/04/26 01:46:17;;;;;;;9.30;2.47;;;;;;;4.36;100.00;101906.16;5048604;28;20047;-42
2023/04/26 01:48:43;;;;;;;8.23;2.80;;;;;;;4.36;100.00;101908.00;5065264;28;20064;-42
2023/04/26 01:51:10;;;;;;;11.13;2.75;;;;;;;4.34;100.00;101912.56;5066164;28;20506;-46
2023/04/26 01:53:35;;;;;;;9.90;3.45;;;;;;;4.28;100.00;101913.06;5068769;28;20032;-43
2023/04/26 01:56:01;;;;;;;6.47;2.53;;;;;;;4.29;100.00;101914.72;5064932;28;20032;-43
2023/04/26 01:58:27;;;;;;;7.50;2.60;;;;;;;4.23;100.00;101904.53;5068949;28;20078;-42
2023/04/26 02:00:52;;;;;;;7.22;2.60;;;;;;;4.21;100.00;101907.31;5063596;28;20036;-45
2023/04/26 02:03:18;;;;;;;12.82;3.47;;;;;;;4.16;100.00;101905.00;5051893;28;20512;-41
2023/04/26 02:05:43;;;;;;;12.52;3.40;;;;;;;4.11;100.00;101912.50;5053009;28;20029;-41
2023/04/26 02:08:09;;;;;;;9.55;3.05;;;;;;;4.08;100.00;101910.06;5053272;28;20028;-45
2023/04/26 02:10:34;;;;;;;13.63;3.35;;;;;;;4.06;100.00;101909.31;5057071;28;20044;-42
2023/04/26 02:13:00;;;;;;;14.13;3.40;;;;;;;4.10;100.00;101908.09;5074321;28;20045;-42
2023/04/26 02:15:25;;;;;;;13.32;3.55;;;;;;;4.13;100.00;101907.91;5071750;28;20029;-43
2023/04/26 02:17:52;;;;;;;9.55;3.80;;;;;;;4.11;100.00;101912.50;5073264;28;20017;-44
2023/04/26 02:20:18;;;;;;;9.48;3.45;;;;;;;4.12;100.00;101914.19;5063026;28;20028;-45
2023/04/26 02:22:43;;;;;;;14.20;3.70;;;;;;;4.14;100.00;101901.59;5055308;28;20370;-43
2023/04/26 02:25:10;;;;;;;12.75;3.85;;;;;;;4.18;100.00;101911.06;5054175;28;20052;-41
2023/04/26 02:27:35;;;;;;;12.85;3.80;;;;;;;4.27;100.00;101908.69;5056968;28;20086;-44
2023/04/26 02:30:02;;;;;;;14.73;4.40;;;;;;;4.38;100.00;101908.72;5073114;28;20073;-40
2023/04/26 02:32:28;;;;;;;9.50;3.58;;;;;;;4.45;100.00;101915.31;5073919;28;20123;-42
2023/04/26 02:34:53;;;;;;;16.92;4.22;;;;;;;4.52;100.00;101911.19;5072650;28;20099;-41
2023/04/26 02:37:20;;;;;;;9.07;3.72;;;;;;;4.59;100.00;101912.44;5074016;28;20021;-42
2023/04/26 02:39:49;;;;;;;5.97;3.70;;;;;;;4.68;100.00;101905.53;5073724;28;20458;-42
2023/04/26 02:42:14;;;;;;;9.00;4.05;;;;;;;4.69;100.00;101901.94;5071897;28;20206;-42
2023/04/26 02:44:39;;;;;;;10.60;4.40;;;;;;;4.70;100.00;101908.09;5068201;28;20570;-43
2023/04/26 02:47:05;;;;;;;14.02;4.70;;;;;;;4.70;100.00;101902.78;5053562;28;20056;-42
2023/04/26 02:49:30;;;;;;;8.40;4.20;;;;;;;4.67;100.00;101895.00;5052122;28;20103;-41
2023/04/26 02:51:55;;;;;;;12.52;4.80;;;;;;;4.69;100.00;101895.75;5052729;28;20405;-41
2023/04/26 02:54:21;;;;;;;11.80;4.43;;;;;;;4.60;100.00;101891.94;5051851;28;20452;-42
2023/04/26 02:56:46;;;;;;;10.38;4.43;;;;;;;4.54;100.00;101890.59;5065711;28;20094;-43
2023/04/26 02:59:12;;;;;;;17.98;4.53;;;;;;;4.47;100.00;101891.19;5055965;28;20037;-41
2023/04/26 03:01:37;;;;;;;23.35;4.80;;;;;;;4.36;100.00;101890.19;5057568;28;20035;-42
2023/04/26 03:04:03;;;;;;;13.98;4.88;;;;;;;4.28;100.00;101891.72;5055781;28;20047;-42
2023/04/26 03:06:29;;;;;;;17.88;5.65;;;;;;;4.21;100.00;101893.16;5064689;28;20035;-41
2023/04/26 03:08:55;;;;;;;13.43;5.13;;;;;;;4.15;100.00;101889.13;5071937;28;20037;-44
2023/04/26 03:11:21;;;;;;;12.23;4.72;;;;;;;4.12;100.00;101892.88;5053946;28;20478;-41
2023/04/26 03:13:46;;;;;;;13.82;5.20;;;;;;;4.10;100.00;101894.78;5052466;28;20035;-43
2023/04/26 03:16:11;;;;;;;20.88;6.72;;;;;;;4.04;100.00;101889.94;5051940;28;20502;-44
2023/04/26 03:18:37;;;;;;;18.48;4.95;;;;;;;4.02;100.00;101891.00;5057766;28;20033;-41
2023/04/26 03:21:02;;;;;;;19.77;5.85;;;;;;;3.96;100.00;101889.66;5072021;28;20127;-41
2023/04/26 03:23:28;;;;;;;22.33;6.00;;;;;;;3.92;100.00;101894.38;5073822;28;20032;-41
2023/04/26 03:25:53;;;;;;;10.82;5.10;;;;;;;3.88;100.00;101900.88;5055317;28;20017;-40
2023/04/26 03:28:19;;;;;;;17.73;5.95;;;;;;;3.87;100.00;101898.31;5055559;28;20016;-41
2023/04/26 03:30:44;;;;;;;23.52;6.03;;;;;;;3.82;100.00;101896.00;5055055;28;20064;-45
2023/04/26 03:33:10;;;;;;;15.63;5.90;;;;;;;3.81;100.00;101894.28;5068974;28;20103;-45
2023/04/26 03:35:35;;;;;;;11.13;5.68;;;;;;;3.81;100.00;101885.44;5064438;28;20498;-41
2023/04/26 03:38:02;;;;;;;19.33;6.45;;;;;;;3.84;100.00;101893.19;5050629;28;20033;-42
2023/04/26 03:40:28;;;;;;;24.13;6.38;;;;;;;3.84;100.00;101885.22;5050480;28;20187;-41
2023/04/26 03:42:54;;;;;;;24.45;6.53;;;;;;;3.85;100.00;101892.25;5050514;28;20111;-44
2023/04/26 03:45:20;;;;;;;13.75;6.05;;;;;;;3.89;100.00;101881.25;5047364;28;20482;-40
2023/04/26 03:47:45;;;;;;;15.52;6.68;;;;;;;3.95;100.00;101879.97;5050553;28;20029;-41
2023/04/26 03:50:11;;;;;;;17.40;6.63;;;;;;;4.02;100.00;101875.03;5050445;28;20036;-41
2023/04/26 03:52:36;;;;;;;21.00;7.25;;;;;;;4.04;100.00;101873.94;5050760;28;20515;-42
2023/04/26 03:55:02;;;;;;;20.73;7.47;;;;;;;4.11;100.00;101875.19;5050107;28;20028;-41
2023/04/26 03:57:27;;;;;;;16.15;6.07;;;;;;;4.19;100.00;101879.97;5048942;28;20132;-41
2023/04/26 03:59:53;;;;;;;17.77;7.00;;;;;;;4.20;100.00;101883.47;5048796;28;20478;-44
2023/04/26 04:02:18;;;;;;;20.85;6.50;;;;;;;4.19;100.00;101871.97;5067024;28;20124;-41
2023/04/26 04:04:43;;;;;;;28.63;7.68;;;;;;;4.20;100.00;101872.81;5068631;28;20021;-43
2023/04/26 04:07:09;;;;;;;24.98;6.78;;;;;;;4.16;100.00;101877.50;5069456;28;20036;-43
2023/04/26 04:09:34;;;;;;;18.38;6.30;;;;;;;4.11;100.00;101875.19;5065434;28;20035;-43
2023/04/26 04:12:01;;;;;;;24.45;6.97;;;;;;;4.08;100.00;101880.75;5050022;28;20112;-41
2023/04/26 04:14:27;;;;;;;19.73;7.40;;;;;;;4.04;100.00;101884.59;5060248;28;20500;-44
2023/04/26 04:16:53;;;;;;;37.13;7.97;;;;;;;3.99;100.00;101880.59;5061146;28;20127;-44
2023/04/26 04:19:18;;;;;;;16.92;6.60;;;;;;;3.95;100.00;101875.50;5068143;28;20087;-42
2023/04/26 04:21:44;;;;;;;24.60;6.72;;;;;;;3.97;100.00;101883.34;5059541;28;20049;-42
2023/04/26 04:24:10;;;;;;;20.02;6.10;;;;;;;3.97;100.00;101888.69;5040740;28;20372;-43
2023/04/26 04:26:36;;;;;;;20.83;6.88;;;;;;;3.95;100.00;101882.63;5057458;28;20537;-43
2023/04/26 04:29:07;;;;;;;25.60;7.72;;;;;;;3.93;100.00;101893.38;5054904;28;20471;-44
2023/04/26 04:31:34;;;;;;;25.00;7.10;;;;;;;3.93;100.00;101887.22;5060067;28;20040;-42
2023/04/26 04:34:00;;;;;;;15.48;6.57;;;;;;;3.90;100.00;101887.44;5062204;28;20334;-43
2023/04/26 04:36:25;;;;;;;22.80;6.20;;;;;;;3.90;100.00;101887.44;5058130;28;20036;-43
2023/04/26 04:38:52;;;;;;;22.23;7.30;;;;;;;3.88;100.00;101886.69;5063143;28;20136;-43
2023/04/26 04:41:19;;;;;;;18.88;6.22;;;;;;;3.91;100.00;101878.47;5060657;28;20025;-44
2023/04/26 04:43:45;;;;;;;26.50;6.47;;;;;;;3.92;100.00;101882.84;5054608;28;20100;-42
2023/04/26 04:46:10;;;;;;;19.45;6.60;;;;;;;3.92;100.00;101888.16;5047530;28;20072;-45
2023/04/26 04:48:37;;;;;;;15.27;6.32;;;;;;;3.95;100.00;101890.63;5055893;28;20521;-43
2023/04/26 04:51:03;;;;;;;22.45;6.75;;;;;;;3.95;100.00;101887.97;5049147;28;20505;-43
2023/04/26 04:53:29;;;;;;;21.63;6.53;;;;;;;3.95;100.00;101886.16;5048853;28;20021;-43
2023/04/26 04:55:55;;;;;;;17.42;6.15;;;;;;;4.01;100.00;101892.81;5047198;28;20457;-45
2023/04/26 04:58:21;;;;;;;15.02;6.55;;;;;;;4.01;100.00;101890.16;5050871;28;20033;-41
2023/04/26 05:00:47;;;;;;;24.67;6.75;;;;;;;4.06;100.00;101892.50;5055444;28;20034;-42
2023/04/26 05:03:13;;;;;;;18.13;6.45;;;;;;;4.13;100.00;101889.25;5057040;28;20093;-43
2023/04/26 05:05:39;;;;;;;16.17;6.07;;;;;;;4.15;100.00;101892.63;5048874;28;20041;-42
2023/04/26 05:08:06;;;;;;;22.67;6.45;;;;;;;4.22;100.00;101882.38;5060780;28;20029;-43
2023/04/26 05:10:33;;;;;;;16.45;6.72;;;;;;;4.33;100.00;101878.91;5062373;28;20047;-43
2023/04/26 05:12:58;;;;;;;21.80;7.25;;;;;;;4.38;100.00;101880.25;5067573;28;20124;-40
2023/04/26 05:15:23;;;;;;;18.85;6.70;;;;;;;4.47;100.00;101876.03;5065940;28;20167;-46
2023/04/26 05:17:50;;;;;;;19.42;6.45;;;;;;;4.65;100.00;101880.94;5069068;28;20039;-43
2023/04/26 05:20:15;;;;;;;24.05;6.60;;;;;;;4.74;100.00;101885.53;5043628;28;20433;-43
2023/04/26 05:22:41;;;;;;;16.00;7.00;;;;;;;4.84;100.00;101889.19;5048637;28;20111;-46
2023/04/26 05:25:07;;;;;;;17.45;6.78;;;;;;;4.95;100.00;101891.03;5048734;28;20437;-42
2023/04/26 05:27:32;;;;;;;20.73;6.20;;;;;;;5.05;100.00;101887.56;5045236;28;20037;-43
2023/04/26 05:30:00;;;;;;;22.63;6.03;;;;;;;5.14;100.00;101887.81;5050893;28;20081;-44
2023/04/26 05:32:25;;;;;;;18.08;6.50;;;;;;;5.40;100.00;101877.72;5047970;28;20108;-47
2023/04/26 05:34:51;;;;;;;24.05;6.57;;;;;;;5.52;100.00;101881.22;5055817;28;20352;-43
2023/04/26 05:37:16;;;;;;;16.30;6.50;;;;;;;5.75;100.00;101885.56;5055810;28;20561;-41
2023/04/26 05:39:42;;;;;;;13.43;4.78;;;;;;;5.88;100.00;101880.91;5054617;28;20102;-41
2023/04/26 05:42:08;;;;;;;15.15;3.63;;;;;;;6.03;100.00;101872.63;5059058;28;20124;-43
2023/04/26 05:44:35;;;;;;;12.27;2.67;;;;;;;6.27;100.00;101870.59;5063334;28;20100;-42
2023/04/26 05:47:00;;;;;;;9.05;2.90;;;;;;;6.54;100.00;101874.59;5059281;28;20025;-42
2023/04/26 05:49:25;;;;;;;10.43;3.05;;;;;;;6.93;100.00;101869.47;5053968;28;20056;-42
2023/04/26 05:51:51;;;;;;;15.57;2.78;;;;;;;7.63;100.00;101873.94;5052250;28;20055;-43
2023/04/26 05:54:16;;;;;;;14.35;3.50;;;;;;;8.03;100.00;101870.38;5058428;28;20021;-43
2023/04/26 05:56:42;;;;;;;10.90;2.85;;;;;;;8.14;100.00;101862.19;5057002;28;20121;-44
2023/04/26 05:59:07;;;;;;;17.83;3.88;;;;;;;8.25;100.00;101871.91;5057460;28;20036;-44
2023/04/26 06:01:33;;;;;;;9.77;2.60;;;;;;;8.17;100.00;101876.28;5062788;28;20171;-43
2023/04/26 06:03:58;;;;;;;7.07;1.98;;;;;;;8.08;100.00;101876.16;5055154;28;20041;-40
2023/04/26 06:06:23;;;;;;;9.88;2.15;;;;;;;7.98;100.00;101880.66;5053633;28;20037;-44
2023/04/26 06:08:49;;;;;;;8.93;1.92;;;;;;;7.81;100.00;101874.13;5057851;28;20029;-42
2023/04/26 06:11:14;;;;;;;15.95;2.22;;;;;;;7.78;100.00;101881.59;5059386;28;20024;-43
2023/04/26 06:13:39;;;;;;;6.53;2.58;;;;;;;7.69;100.00;101886.81;5058235;28;20115;-42
2023/04/26 06:16:06;;;;;;;21.27;2.83;;;;;;;7.67;100.00;101886.09;5052172;28;20615;-44
2023/04/26 06:18:31;;;;;;;7.43;2.40;;;;;;;7.61;100.00;101889.34;5054750;28;20490;-43
2023/04/26 06:20:56;;;;;;;10.52;2.67;;;;;;;7.72;100.00;101895.56;5060070;28;20021;-41
2023/04/26 06:23:22;;;;;;;14.63;2.67;;;;;;;7.79;100.00;101896.69;5055537;28;20096;-42
2023/04/26 06:25:47;;;;;;;14.20;2.45;;;;;;;7.94;100.00;101899.84;5055167;28;20029;-40
2023/04/26 06:28:13;;;;;;;17.60;2.55;;;;;;;7.96;100.00;101896.03;5055284;28;20421;-41
2023/04/26 06:30:38;;;;;;;10.10;2.78;;;;;;;7.89;100.00;101900.25;5039531;28;20040;-43
2023/04/26 06:33:04;;;;;;;10.65;2.20;;;;;;;7.87;100.00;101896.84;5062624;28;20147;-42
2023/04/26 06:35:30;;;;;;;17.50;2.17;;;;;;;7.79;100.00;101894.00;5054444;28;20463;-42
2023/04/26 06:37:55;;;;;;;8.00;2.35;;;;;;;7.82;100.00;101893.72;5055232;28;20112;-42
2023/04/26 06:40:21;;;;;;;7.53;2.08;;;;;;;7.81;100.00;101902.75;5067011;28;20036;-40
2023/04/26 06:42:46;;;;;;;12.65;2.38;;;;;;;7.81;100.00;101889.38;5067948;28;20128;-44
2023/04/26 06:45:12;;;;;;;11.27;2.10;;;;;;;7.77;100.00;101894.16;5067371;28;20028;-43
2023/04/26 06:47:38;;;;;;;12.80;2.70;;;;;;;7.73;100.00;101891.88;5061142;28;20033;-42
2023/04/26 06:50:04;;;;;;;8.35;2.90;;;;;;;7.70;100.00;101887.66;5078381;28;20039;-42
2023/04/26 06:52:30;;;;;;;11.50;1.95;;;;;;;7.60;100.00;101887.63;5057038;28;20052;-41
2023/04/26 06:54:55;;;;;;;18.17;2.45;;;;;;;7.57;100.00;101898.63;5060379;28;20116;-44
2023/04/26 06:57:21;;;;;;;15.90;3.33;;;;;;;7.45;100.00;101889.84;5064827;28;20043;-41
2023/04/26 06:59:46;;;;;;;10.52;2.22;;;;;;;7.43;100.00;101890.97;5063250;28;20108;-43
2023/04/26 07:02:11;;;;;;;7.88;2.47;;;;;;;7.56;100.00;101894.25;5061707;28;20475;-42
2023/04/26 07:04:37;;;;;;;8.93;1.77;;;;;;;7.67;100.00;101893.28;5062754;28;20083;-41
2023/04/26 07:07:02;;;;;;;8.50;2.05;;;;;;;7.58;100.00;101889.63;5060196;28;20036;-40
2023/04/26 07:09:27;;;;;;;7.88;2.33;;;;;;;7.27;100.00;101894.16;5058880;28;20476;-45
2023/04/26 07:11:53;;;;;;;14.52;2.28;;;;;;;7.07;100.00;101905.75;5063949;28;20046;-42
2023/04/26 07:14:18;;;;;;;8.00;2.20;;;;;;;6.94;100.00;101901.44;5055694;28;20028;-41
2023/04/26 07:16:44;;;;;;;6.03;1.73;;;;;;;6.92;100.00;101907.91;5052416;28;20092;-41
2023/04/26 07:19:10;;;;;;;6.88;1.92;;;;;;;6.96;100.00;101904.84;5060190;28;20475;-42
2023/04/26 07:21:36;;;;;;;5.03;1.90;;;;;;;7.05;100.00;101903.19;5051720;28;20027;-41
2023/04/26 07:24:02;;;;;;;12.38;2.75;;;;;;;7.03;100.00;101905.16;5057717;28;20057;-41
2023/04/26 07:26:27;;;;;;;12.02;1.92;;;;;;;6.91;100.00;101900.88;5049342;28;20345;-40
2023/04/26 07:28:52;;;;;;;5.90;2.13;;;;;;;6.78;100.00;101906.41;5062703;28;20077;-43
2023/04/26 07:31:19;;;;;;;4.78;2.10;;;;;;;6.82;100.00;101891.81;5070604;28;20372;-40
2023/04/26 07:33:44;;;;;;;9.55;2.03;;;;;;;6.89;100.00;101897.47;5068826;28;20109;-42
2023/04/26 07:36:10;;;;;;;3.92;2.03;;;;;;;6.78;100.00;101903.75;5058489;28;20037;-41
2023/04/26 07:38:35;;;;;;;7.35;2.20;;;;;;;6.73;100.00;101904.13;5049039;28;20063;-41
2023/04/26 07:41:00;;;;;;;5.63;1.70;;;;;;;6.78;100.00;101907.25;5049382;28;20029;-40
2023/04/26 07:43:27;;;;;;;11.35;2.92;;;;;;;6.89;100.00;101913.53;5054889;28;20024;-44
2023/04/26 07:45:52;;;;;;;7.47;2.13;;;;;;;6.88;100.00;101906.50;5046981;28;20149;-44
2023/04/26 07:48:18;;;;;;;10.30;2.33;;;;;;;7.07;100.00;101911.94;5057172;28;20109;-43
2023/04/26 07:50:43;;;;;;;8.13;1.83;;;;;;;7.05;100.00;101908.53;5050518;28;20075;-42
2023/04/26 07:53:09;;;;;;;7.85;2.88;;;;;;;7.04;100.00;101915.72;5050745;28;20028;-45
2023/04/26 07:55:36;;;;;;;5.68;2.08;;;;;;;7.14;100.00;101921.13;5062295;28;20154;-40
2023/04/26 07:58:02;;;;;;;8.38;2.22;;;;;;;7.21;100.00;101918.75;5063926;28;20163;-45
2023/04/26 08:00:27;;;;;;;13.13;2.75;;;;;;;7.22;100.00;101920.47;5052884;28;20107;-43
2023/04/26 08:02:53;;;;;;;6.55;2.15;;;;;;;7.26;100.00;101922.72;5034375;28;20070;-42
2023/04/26 08:05:18;;;;;;;11.13;1.60;;;;;;;7.19;100.00;101924.28;5050776;28;20029;-44
2023/04/26 08:07:44;;;;;;;7.03;1.92;;;;;;;7.12;100.00;101927.59;5053362;28;20125;-45
2023/04/26 08:10:09;;;;;;;3.88;1.73;;;;;;;7.21;100.00;101927.66;5050232;28;20036;-42
2023/04/26 08:12:36;;;;;;;8.32;1.80;;;;;;;7.35;100.00;101921.09;5052991;28;20033;-41
2023/04/26 08:15:03;;;;;;;9.95;2.40;;;;;;;7.48;100.00;101920.88;5051794;28;20112;-40
2023/04/26 08:17:30;;;;;;;8.37;2.00;;;;;;;7.37;100.00;101915.59;5050000;28;20028;-41
2023/04/26 08:19:55;;;;;;;3.75;1.55;;;;;;;7.57;100.00;101919.22;5059543;28;20482;-41
2023/04/26 08:22:21;;;;;;;7.40;1.95;;;;;;;7.64;100.00;101913.16;5067081;28;20031;-45
2023/04/26 08:24:50;;;;;;;3.83;1.70;;;;;;;7.70;100.00;101917.97;5047805;28;20470;-40
2023/04/26 08:27:16;;;;;;;5.05;1.83;;;;;;;7.76;100.00;101918.41;5049872;28;20024;-41
2023/04/26 08:29:42;;;;;;;13.65;2.20;;;;;;;7.57;100.00;101925.41;5051344;28;20021;-43
2023/04/26 08:32:07;;;;;;;8.48;1.80;;;;;;;7.62;100.00;101925.00;5049681;28;20032;-44
2023/04/26 08:34:33;;;;;;;5.30;2.13;;;;;;;7.73;100.00;101924.03;5056365;28;20131;-43
2023/04/26 08:36:58;;;;;;;3.63;2.20;;;;;;;7.81;100.00;101927.72;5035744;28;20056;-43
2023/04/26 08:39:23;;;;;;;10.18;2.25;;;;;;;7.75;100.00;101925.59;5053694;28;20077;-40
2023/04/26 08:41:53;;;;;;;7.82;2.00;;;;;;;7.65;100.00;101922.03;5064744;28;20029;-43
2023/04/26 08:44:22;;;;;;;9.00;2.35;;;;;;;7.52;100.00;101924.97;5052273;28;20028;-43
2023/04/26 08:46:53;;;;;;;4.75;2.03;;;;;;;7.47;100.00;101929.88;5056021;28;20395;-43
2023/04/26 08:49:33;;;;;;;4.85;1.73;;;;;;;7.42;100.00;101934.78;5049031;28;20094;-41
2023/04/26 08:51:59;;;;;;;7.28;1.90;;;;;;;7.37;100.00;101934.34;5048136;28;20056;-42
2023/04/26 08:54:24;;;;;;;5.20;1.70;;;;;;;7.32;100.00;101932.09;5050846;28;20082;-40
2023/04/26 08:56:50;;;;;;;6.00;2.10;;;;;;;7.34;100.00;101934.63;5049273;28;20143;-42
2023/04/26 08:59:19;;;;;;;13.07;1.95;;;;;;;7.37;100.00;101939.69;5052134;28;20044;-41
2023/04/26 09:01:45;;;;;;;7.07;1.90;;;;;;;7.48;100.00;101936.94;5049942;28;20108;-42
2023/04/26 09:04:11;;;;;;;6.28;1.70;;;;;;;7.59;100.00;101939.53;5052961;28;20120;-42
2023/04/26 09:06:38;;;;;;;7.47;2.75;;;;;;;7.72;100.00;101933.09;5048402;28;20035;-41
2023/04/26 09:09:03;;;;;;;4.07;1.88;;;;;;;7.96;100.00;101930.88;5068683;28;20032;-44
2023/04/26 09:11:29;;;;;;;7.47;1.95;;;;;;;8.24;100.00;101939.09;5065702;28;20122;-42
2023/04/26 09:13:55;;;;;;;9.43;2.00;;;;;;;8.35;100.00;101930.94;5058518;28;20021;-42
2023/04/26 09:16:34;;;;;;;8.43;1.85;;;;;;;8.72;100.00;101932.94;5049200;28;20064;-41
2023/04/26 09:19:00;;;;;;;4.53;1.77;;;;;;;9.07;100.00;101924.22;5064446;28;20044;-41
2023/04/26 09:21:26;;;;;;;13.07;1.83;;;;;;;9.40;100.00;101928.22;5066402;28;20111;-44
2023/04/26 09:24:00;;;;;;;6.65;1.67;;;;;;;9.68;100.00;101925.53;5067769;28;20025;-40
2023/04/26 09:26:26;;;;;;;6.53;1.60;;;;;;;9.93;100.00;101925.84;5067539;28;20028;-43
2023/04/26 09:29:11;;;;;;;9.18;1.73;;;;;;;10.25;97.42;101925.31;5065911;28;20036;-44
2023/04/26 09:31:40;;;;;;;2.72;1.25;;;;;;;10.44;93.67;101916.28;5049108;28;20426;-42
2023/04/26 09:34:06;;;;;;;3.70;1.25;;;;;;;10.30;93.83;101918.50;5052700;28;20139;-42
2023/04/26 09:36:32;;;;;;;10.07;1.60;;;;;;;10.38;96.13;101916.91;5066213;28;20024;-43
2023/04/26 09:38:57;;;;;;;5.95;1.42;;;;;;;10.75;93.45;101914.00;5067407;28;20025;-41
2023/04/26 09:41:23;;;;;;;8.80;1.60;;;;;;;10.49;89.05;101911.28;5068203;28;20486;-41
2023/04/26 09:43:51;;;;;;;4.65;1.98;;;;;;;10.24;91.40;101910.16;5067832;28;20111;-42
2023/04/26 09:46:23;;;;;;;;;;;;;;;10.22;90.95;101906.81;5065723;28;20442;-40
2023/04/26 09:49:00;;;;;;;7.85;1.50;;;;;;;10.30;87.78;101918.50;5065730;28;19924;-41
2023/04/26 09:51:27;;;;;;;5.20;1.45;;;;;;;10.49;87.58;101919.34;5066975;28;20445;-40
2023/04/26 09:53:53;;;;;;;7.47;1.30;;;;;;;11.08;87.09;101917.75;5065081;28;20168;-42
2023/04/26 09:56:19;;;;;;;14.23;2.05;;;;;;;12.31;81.34;101923.66;5056766;28;20413;-41
2023/04/26 09:58:47;;;;;;;7.28;1.70;;;;;;;13.38;74.17;101917.16;5064860;28;20021;-45
2023/04/26 10:01:17;;;;;;;11.40;1.67;;;;;;;13.75;70.50;101923.78;5054509;28;20029;-45
2023/04/26 10:03:44;;;;;;;7.20;1.60;;;;;;;14.71;68.65;101910.78;5053352;28;20025;-42
2023/04/26 10:06:11;;;;;;;7.78;1.63;;;;;;;15.76;65.93;101920.69;5066080;28;20058;-44
2023/04/26 10:08:36;;;;;;;3.38;1.25;;;;;;;15.59;57.14;101915.44;5048241;28;20499;-41
2023/04/26 10:11:11;;;;;;;5.68;1.45;;;;;;;14.88;59.18;101919.63;5048748;28;20031;-46
2023/04/26 10:13:40;;;;;;;5.28;1.50;;;;;;;13.99;63.76;101916.53;5047646;28;20028;-42
2023/04/26 10:16:06;;;;;;;6.70;1.40;;;;;;;13.34;65.32;101910.41;5049110;28;20119;-40
2023/04/26 10:18:32;;;;;;;5.13;1.45;;;;;;;13.44;68.35;101912.91;5050853;28;20024;-42
2023/04/26 10:21:09;;;;;;;7.07;1.70;;;;;;;13.96;64.81;101909.63;5048457;28;20082;-40
2023/04/26 10:23:35;;;;;;;4.75;1.27;;;;;;;13.67;64.93;101910.28;5052811;28;20115;-43
2023/04/26 10:26:00;;;;;;;9.43;2.10;;;;;;;13.06;65.93;101909.09;5060065;28;20729;-40
2023/04/26 10:28:44;;;;;;;4.78;1.52;;;;;;;12.82;66.81;101916.25;5054552;28;20358;-43
2023/04/26 10:31:11;;;;;;;4.10;1.35;;;;;;;12.45;66.82;101914.91;5066610;28;20115;-41
2023/04/26 10:33:37;;;;;;;6.38;1.85;;;;;;;12.33;67.13;101916.22;5063102;28;20116;-42
2023/04/26 10:36:21;;;;;;;4.93;1.35;;;;;;;12.36;70.40;101915.91;5063129;28;20543;-43
2023/04/26 10:39:19;;;;;;;12.90;1.92;;;;;;;12.37;72.50;101917.56;5055244;28;20055;-46
2023/04/26 10:41:44;;;;;;;6.95;1.50;;;;;;;12.33;73.61;101908.13;5072551;28;20455;-41
2023/04/26 10:44:58;;;;;;;3.67;1.40;;;;;;;13.35;73.25;101905.84;5072850;28;20103;-43
2023/04/26 10:47:43;;;;;;;8.93;1.50;;;;;;;14.46;67.68;101902.84;5053732;28;20063;-44
2023/04/26 10:50:10;;;;;;;9.48;1.30;;;;;;;14.79;66.17;101901.75;5045076;28;20169;-43
2023/04/26 10:53:03;;;;;;;8.88;2.13;;;;;;;14.92;63.23;101904.66;5063904;28;20033;-43
2023/04/26 10:55:41;;;;;;;6.15;1.15;;;;;;;14.23;63.85;101905.53;5055600;28;20048;-41
2023/04/26 10:58:26;;;;;;;6.38;1.50;;;;;;;13.81;62.69;101900.56;5052845;28;20418;-41
2023/04/26 11:01:16;;;;;;;7.60;1.45;;;;;;;13.30;62.70;101898.25;5063491;28;20028;-42
2023/04/26 11:03:42;;;;;;;4.93;1.15;;;;;;;13.15;64.76;101898.09;5057999;28;20102;-42
2023/04/26 11:06:14;;;;;;;5.97;1.30;;;;;;;13.95;62.40;101896.25;5051820;28;20091;-42
2023/04/26 11:08:40;;;;;;;7.45;1.63;;;;;;;14.48;62.33;101889.97;5065924;28;20029;-42
2023/04/26 11:11:12;;;;;;;4.07;1.42;;;;;;;15.22;60.64;101888.41;5050732;28;20406;-42
2023/04/26 11:13:41;;;;;;;3.15;1.20;;;;;;;15.88;58.21;101883.03;5049418;28;20033;-45
2023/04/26 11:16:15;;;;;;;4.57;1.25;;;;;;;16.23;55.58;101890.28;5053049;28;20023;-41
2023/04/26 11:18:46;;;;;;;3.13;1.08;;;;;;;15.51;58.38;101893.84;5061472;28;20698;-46
2023/04/26 11:21:16;;;;;;;7.10;1.55;;;;;;;15.00;56.12;101885.59;5060246;28;20033;-43